PWSweather.com
Personal Weather Stations
Station Observations

YeovilGB

Lat: 50.949, Lon: -2.627

Elevation: 70

Station Type: Vantage Pro

http://www.yeovil-weather.me.uk/

High Low Average
Temperature 49.9°F9.9°C 34.0°F1.1°C 43.4°F6.3°C
Dew Point 47.8°F8.8°C 32.7°F0.4°C 41.1°F5.1°C
Winds 2.3 mph 3.7 kmh Calm Calm Calm WCalm W
Wind Gusts 6.9 mph11.1 kmh -- 1.0 mph1.6 kmh
Humidity 98% 84% 92%
Pressure 30.64 in1037.6 mb 30.48 in1032.2 mb -
Precipitation 0.00 in0.0 mm - -
Hour Temp Dew Point Humidity Winds Wind Gusts Pressure Precip Precip Rate Daily Precip Total
12:00 AM 41.9°F5.5°C 39.7°F4.3°C 92% Calm Calm -- 30.48 in1032.2 mb - 0.00 in0.0 mm 0.00 in0.0 mm
12:10 AM 41.9°F5.5°C 40.0°F4.4°C 93% Calm Calm -- 30.48 in1032.2 mb - 0.00 in0.0 mm 0.00 in0.0 mm
12:20 AM 41.9°F5.5°C 40.0°F4.4°C 93% Calm Calm -- 30.48 in1032.2 mb - 0.00 in0.0 mm 0.00 in0.0 mm
12:30 AM 41.8°F5.4°C 39.9°F4.4°C 93% Calm Calm -- 30.48 in1032.2 mb - 0.00 in0.0 mm 0.00 in0.0 mm
12:40 AM 41.6°F5.3°C 39.7°F4.3°C 93% Calm Calm -- 30.48 in1032.2 mb - 0.00 in0.0 mm 0.00 in0.0 mm
12:50 AM 41.4°F5.2°C 39.3°F4.1°C 92% Calm Calm -- 30.48 in1032.2 mb - 0.00 in0.0 mm 0.00 in0.0 mm
01:00 AM 41.2°F5.1°C 39.3°F4.1°C 93% Calm Calm -- 30.48 in1032.2 mb - 0.00 in0.0 mm 0.00 in0.0 mm
01:10 AM 41.0°F5.0°C 39.1°F3.9°C 93% Calm Calm -- 30.48 in1032.2 mb - 0.00 in0.0 mm 0.00 in0.0 mm
01:20 AM 40.7°F4.8°C 38.8°F3.8°C 93% Calm Calm -- 30.48 in1032.2 mb - 0.00 in0.0 mm 0.00 in0.0 mm
01:30 AM 40.3°F4.6°C 38.4°F3.6°C 93% Calm Calm -- 30.49 in1032.5 mb - 0.00 in0.0 mm 0.00 in0.0 mm
01:40 AM 39.9°F4.4°C 38.0°F3.3°C 93% Calm Calm -- 30.49 in1032.5 mb - 0.00 in0.0 mm 0.00 in0.0 mm
01:50 AM 39.5°F4.2°C 37.6°F3.1°C 93% Calm Calm -- 30.49 in1032.5 mb - 0.00 in0.0 mm 0.00 in0.0 mm
02:00 AM 39.0°F3.9°C 37.2°F2.9°C 93% Calm Calm -- 30.49 in1032.5 mb - 0.00 in0.0 mm 0.00 in0.0 mm
02:10 AM 38.6°F3.7°C 36.7°F2.6°C 93% Calm Calm -- 30.49 in1032.5 mb - 0.00 in0.0 mm 0.00 in0.0 mm
02:20 AM 38.1°F3.4°C 36.3°F2.4°C 93% Calm Calm -- 30.50 in1032.8 mb - 0.00 in0.0 mm 0.00 in0.0 mm
02:30 AM 37.8°F3.2°C 36.0°F2.2°C 93% Calm Calm -- 30.50 in1032.8 mb - 0.00 in0.0 mm 0.00 in0.0 mm
02:40 AM 37.5°F3.1°C 35.7°F2.1°C 93% Calm Calm -- 30.50 in1032.8 mb - 0.00 in0.0 mm 0.00 in0.0 mm
02:50 AM 37.3°F2.9°C 35.4°F1.9°C 93% Calm Calm -- 30.50 in1032.8 mb - 0.00 in0.0 mm 0.00 in0.0 mm
03:00 AM 37.0°F2.8°C 35.2°F1.8°C 93% Calm Calm -- 30.50 in1032.8 mb - 0.00 in0.0 mm 0.00 in0.0 mm
03:10 AM 36.9°F2.7°C 35.3°F1.8°C 94% Calm Calm -- 30.50 in1032.8 mb - 0.00 in0.0 mm 0.00 in0.0 mm
03:20 AM 36.7°F2.6°C 35.2°F1.8°C 94% Calm Calm -- 30.49 in1032.5 mb - 0.00 in0.0 mm 0.00 in0.0 mm
03:30 AM 36.6°F2.6°C 35.0°F1.7°C 94% Calm Calm -- 30.49 in1032.5 mb - 0.00 in0.0 mm 0.00 in0.0 mm
03:40 AM 36.3°F2.4°C 34.7°F1.5°C 94% Calm Calm -- 30.49 in1032.5 mb - 0.00 in0.0 mm 0.00 in0.0 mm
03:50 AM 36.0°F2.2°C 34.4°F1.3°C 94% Calm Calm -- 30.49 in1032.5 mb - 0.00 in0.0 mm 0.00 in0.0 mm
04:00 AM 35.8°F2.1°C 34.3°F1.3°C 94% Calm Calm -- 30.49 in1032.5 mb - 0.00 in0.0 mm 0.00 in0.0 mm
04:10 AM 35.7°F2.1°C 34.1°F1.2°C 94% Calm Calm -- 30.49 in1032.5 mb - 0.00 in0.0 mm 0.00 in0.0 mm
04:20 AM 35.5°F1.9°C 33.9°F1.1°C 94% Calm Calm -- 30.50 in1032.8 mb - 0.00 in0.0 mm 0.00 in0.0 mm
04:30 AM 35.5°F1.9°C 34.2°F1.2°C 95% Calm Calm -- 30.50 in1032.8 mb - 0.00 in0.0 mm 0.00 in0.0 mm
04:40 AM 35.3°F1.8°C 33.7°F0.9°C 94% Calm Calm -- 30.50 in1032.8 mb - 0.00 in0.0 mm 0.00 in0.0 mm
04:50 AM 35.2°F1.8°C 33.6°F0.9°C 94% Calm Calm -- 30.50 in1032.8 mb - 0.00 in0.0 mm 0.00 in0.0 mm
05:00 AM 35.1°F1.7°C 33.8°F1.0°C 95% Calm Calm -- 30.51 in1033.2 mb - 0.00 in0.0 mm 0.00 in0.0 mm
05:10 AM 35.1°F1.7°C 33.8°F1.0°C 95% Calm Calm -- 30.50 in1032.8 mb - 0.00 in0.0 mm 0.00 in0.0 mm
05:20 AM 35.1°F1.7°C 33.8°F1.0°C 95% Calm Calm -- 30.50 in1032.8 mb - 0.00 in0.0 mm 0.00 in0.0 mm
05:30 AM 35.2°F1.8°C 33.9°F1.1°C 95% Calm Calm -- 30.51 in1033.2 mb - 0.00 in0.0 mm 0.00 in0.0 mm
05:40 AM 35.3°F1.8°C 34.0°F1.1°C 95% Calm Calm -- 30.51 in1033.2 mb - 0.00 in0.0 mm 0.00 in0.0 mm
05:50 AM 35.1°F1.7°C 33.8°F1.0°C 95% Calm Calm -- 30.51 in1033.2 mb - 0.00 in0.0 mm 0.00 in0.0 mm
06:00 AM 34.9°F1.6°C 33.6°F0.9°C 95% Calm Calm -- 30.51 in1033.2 mb - 0.00 in0.0 mm 0.00 in0.0 mm
06:10 AM 34.6°F1.4°C 33.3°F0.7°C 95% Calm Calm -- 30.51 in1033.2 mb - 0.00 in0.0 mm 0.00 in0.0 mm
06:20 AM 34.3°F1.3°C 33.1°F0.6°C 95% Calm Calm -- 30.51 in1033.2 mb - 0.00 in0.0 mm 0.00 in0.0 mm
06:30 AM 34.0°F1.1°C 32.8°F0.4°C 95% Calm Calm -- 30.52 in1033.5 mb - 0.00 in0.0 mm 0.00 in0.0 mm
06:40 AM 34.0°F1.1°C 32.7°F0.4°C 95% Calm Calm -- 30.52 in1033.5 mb - 0.00 in0.0 mm 0.00 in0.0 mm
06:50 AM 34.1°F1.2°C 33.1°F0.6°C 96% Calm Calm -- 30.52 in1033.5 mb - 0.00 in0.0 mm 0.00 in0.0 mm
07:00 AM 34.5°F1.4°C 33.4°F0.8°C 96% Calm Calm -- 30.52 in1033.5 mb - 0.00 in0.0 mm 0.00 in0.0 mm
07:10 AM 34.9°F1.6°C 33.9°F1.1°C 96% Calm Calm -- 30.52 in1033.5 mb - 0.00 in0.0 mm 0.00 in0.0 mm
07:20 AM 35.7°F2.1°C 34.9°F1.6°C 97% Calm Calm -- 30.52 in1033.5 mb - 0.00 in0.0 mm 0.00 in0.0 mm
07:30 AM 36.4°F2.4°C 35.6°F2.0°C 97% Calm Calm -- 30.53 in1033.9 mb - 0.00 in0.0 mm 0.00 in0.0 mm
07:40 AM 37.1°F2.8°C 36.3°F2.4°C 97% Calm Calm -- 30.53 in1033.9 mb - 0.00 in0.0 mm 0.00 in0.0 mm
07:50 AM 37.8°F3.2°C 37.0°F2.8°C 97% Calm Calm -- 30.54 in1034.2 mb - 0.00 in0.0 mm 0.00 in0.0 mm
08:00 AM 38.7°F3.7°C 37.9°F3.3°C 97% Calm Calm -- 30.54 in1034.2 mb - 0.00 in0.0 mm 0.00 in0.0 mm
08:10 AM 40.5°F4.7°C 40.0°F4.4°C 98% Calm Calm 2.3 mph3.7 kmh 30.54 in1034.2 mb - 0.00 in0.0 mm 0.00 in0.0 mm
08:20 AM 42.2°F5.7°C 41.7°F5.4°C 98% Calm Calm -- 30.55 in1034.5 mb - 0.00 in0.0 mm 0.00 in0.0 mm
08:30 AM 43.1°F6.2°C 42.6°F5.9°C 98% Calm Calm -- 30.55 in1034.5 mb - 0.00 in0.0 mm 0.00 in0.0 mm
08:40 AM 43.7°F6.5°C 43.2°F6.2°C 98% Calm Calm -- 30.55 in1034.5 mb - 0.00 in0.0 mm 0.00 in0.0 mm
08:50 AM 43.2°F6.2°C 42.4°F5.8°C 97% Calm Calm -- 30.56 in1034.9 mb - 0.00 in0.0 mm 0.00 in0.0 mm
09:00 AM 42.3°F5.7°C 41.2°F5.1°C 96% Calm Calm -- 30.56 in1034.9 mb - 0.00 in0.0 mm 0.00 in0.0 mm
09:10 AM 42.0°F5.6°C 40.9°F4.9°C 96% Calm Calm -- 30.56 in1034.9 mb - 0.00 in0.0 mm 0.00 in0.0 mm
09:20 AM 42.0°F5.6°C 41.0°F5.0°C 96% Calm Calm -- 30.57 in1035.2 mb - 0.00 in0.0 mm 0.00 in0.0 mm
09:30 AM 42.2°F5.7°C 41.4°F5.2°C 97% Calm Calm -- 30.57 in1035.2 mb - 0.00 in0.0 mm 0.00 in0.0 mm
09:40 AM 42.3°F5.7°C 41.5°F5.3°C 97% Calm Calm -- 30.57 in1035.2 mb - 0.00 in0.0 mm 0.00 in0.0 mm
09:50 AM 42.5°F5.8°C 41.7°F5.4°C 97% Calm Calm -- 30.57 in1035.2 mb - 0.00 in0.0 mm 0.00 in0.0 mm
10:00 AM 42.8°F6.0°C 42.0°F5.6°C 97% Calm Calm -- 30.58 in1035.6 mb - 0.00 in0.0 mm 0.00 in0.0 mm
10:10 AM 43.2°F6.2°C 42.4°F5.8°C 97% Calm Calm -- 30.58 in1035.6 mb - 0.00 in0.0 mm 0.00 in0.0 mm
10:20 AM 43.5°F6.4°C 42.7°F5.9°C 97% Calm Calm -- 30.58 in1035.6 mb - 0.00 in0.0 mm 0.00 in0.0 mm
10:30 AM 43.8°F6.6°C 43.0°F6.1°C 97% Calm Calm -- 30.59 in1035.9 mb - 0.00 in0.0 mm 0.00 in0.0 mm
10:40 AM 44.1°F6.7°C 43.3°F6.3°C 97% Calm Calm -- 30.59 in1035.9 mb - 0.00 in0.0 mm 0.00 in0.0 mm
10:50 AM 44.5°F6.9°C 43.7°F6.5°C 97% Calm Calm -- 30.59 in1035.9 mb - 0.00 in0.0 mm 0.00 in0.0 mm
11:00 AM 45.2°F7.3°C 44.6°F7.0°C 98% 1.2 mph WSW1.9 kmh WSW 5.8 mph9.3 kmh 30.59 in1035.9 mb - 0.00 in0.0 mm 0.00 in0.0 mm
11:10 AM 46.2°F7.9°C 45.7°F7.6°C 98% 1.2 mph WSW1.9 kmh WSW 4.6 mph7.4 kmh 30.59 in1035.9 mb - 0.00 in0.0 mm 0.00 in0.0 mm
11:20 AM 47.2°F8.4°C 46.7°F8.2°C 98% 2.3 mph WSW3.7 kmh WSW 4.6 mph7.4 kmh 30.59 in1035.9 mb - 0.00 in0.0 mm 0.00 in0.0 mm
11:30 AM 47.7°F8.7°C 46.9°F8.3°C 97% 1.2 mph WSW1.9 kmh WSW 3.5 mph5.6 kmh 30.59 in1035.9 mb - 0.00 in0.0 mm 0.00 in0.0 mm
11:40 AM 48.0°F8.9°C 47.2°F8.4°C 97% Calm Calm -- 30.59 in1035.9 mb - 0.00 in0.0 mm 0.00 in0.0 mm
11:50 AM 48.2°F9.0°C 47.4°F8.6°C 97% 1.2 mph SW1.9 kmh SW 4.6 mph7.4 kmh 30.59 in1035.9 mb - 0.00 in0.0 mm 0.00 in0.0 mm
12:00 PM 48.5°F9.2°C 47.6°F8.7°C 97% Calm Calm 2.3 mph3.7 kmh 30.59 in1035.9 mb - 0.00 in0.0 mm 0.00 in0.0 mm
12:10 PM 48.6°F9.2°C 47.8°F8.8°C 97% 2.3 mph SW3.7 kmh SW 4.6 mph7.4 kmh 30.58 in1035.6 mb - 0.00 in0.0 mm 0.00 in0.0 mm
12:20 PM 48.8°F9.3°C 47.7°F8.7°C 96% Calm Calm 2.3 mph3.7 kmh 30.58 in1035.6 mb - 0.00 in0.0 mm 0.00 in0.0 mm
12:30 PM 48.9°F9.4°C 47.8°F8.8°C 96% 2.3 mph WSW3.7 kmh WSW 4.6 mph7.4 kmh 30.58 in1035.6 mb - 0.00 in0.0 mm 0.00 in0.0 mm
12:40 PM 49.0°F9.4°C 47.6°F8.7°C 95% 2.3 mph WSW3.7 kmh WSW 3.5 mph5.6 kmh 30.58 in1035.6 mb - 0.00 in0.0 mm 0.00 in0.0 mm
12:50 PM 49.1°F9.5°C 47.7°F8.7°C 95% Calm Calm 2.3 mph3.7 kmh 30.58 in1035.6 mb - 0.00 in0.0 mm 0.00 in0.0 mm
01:00 PM 49.2°F9.6°C 47.6°F8.7°C 94% 1.2 mph NW1.9 kmh NW 3.5 mph5.6 kmh 30.58 in1035.6 mb - 0.00 in0.0 mm 0.00 in0.0 mm
01:10 PM 49.3°F9.6°C 47.4°F8.6°C 93% 1.2 mph W1.9 kmh W 4.6 mph7.4 kmh 30.58 in1035.6 mb - 0.00 in0.0 mm 0.00 in0.0 mm
01:20 PM 49.5°F9.7°C 47.6°F8.7°C 93% 2.3 mph NW3.7 kmh NW 6.9 mph11.1 kmh 30.58 in1035.6 mb - 0.00 in0.0 mm 0.00 in0.0 mm
01:30 PM 49.7°F9.8°C 47.5°F8.6°C 92% 2.3 mph NW3.7 kmh NW 4.6 mph7.4 kmh 30.58 in1035.6 mb - 0.00 in0.0 mm 0.00 in0.0 mm
01:40 PM 49.8°F9.9°C 47.6°F8.7°C 92% 2.3 mph W3.7 kmh W 4.6 mph7.4 kmh 30.57 in1035.2 mb - 0.00 in0.0 mm 0.00 in0.0 mm
01:50 PM 49.9°F9.9°C 47.4°F8.6°C 91% 1.2 mph W1.9 kmh W 2.3 mph3.7 kmh 30.57 in1035.2 mb - 0.00 in0.0 mm 0.00 in0.0 mm
02:00 PM 49.7°F9.8°C 47.2°F8.4°C 91% 1.2 mph SW1.9 kmh SW 3.5 mph5.6 kmh 30.57 in1035.2 mb - 0.00 in0.0 mm 0.00 in0.0 mm
02:10 PM 49.7°F9.8°C 46.9°F8.3°C 90% 1.2 mph WSW1.9 kmh WSW -- 30.57 in1035.2 mb - 0.00 in0.0 mm 0.00 in0.0 mm
02:20 PM 49.7°F9.8°C 46.8°F8.2°C 90% 2.3 mph NW3.7 kmh NW 6.9 mph11.1 kmh 30.57 in1035.2 mb - 0.00 in0.0 mm 0.00 in0.0 mm
02:30 PM 49.5°F9.7°C 46.7°F8.2°C 90% Calm Calm -- 30.57 in1035.2 mb - 0.00 in0.0 mm 0.00 in0.0 mm
02:40 PM 49.5°F9.7°C 46.7°F8.2°C 90% Calm Calm -- 30.57 in1035.2 mb - 0.00 in0.0 mm 0.00 in0.0 mm
02:50 PM 49.4°F9.7°C 46.6°F8.1°C 90% Calm Calm 2.3 mph3.7 kmh 30.57 in1035.2 mb - 0.00 in0.0 mm 0.00 in0.0 mm
03:00 PM 49.3°F9.6°C 46.2°F7.9°C 89% Calm Calm -- 30.57 in1035.2 mb - 0.00 in0.0 mm 0.00 in0.0 mm
03:10 PM 49.2°F9.6°C 46.1°F7.8°C 89% Calm Calm 4.6 mph7.4 kmh 30.57 in1035.2 mb - 0.00 in0.0 mm 0.00 in0.0 mm
03:20 PM 49.0°F9.4°C 45.9°F7.7°C 89% 1.2 mph NW1.9 kmh NW 2.3 mph3.7 kmh 30.57 in1035.2 mb - 0.00 in0.0 mm 0.00 in0.0 mm
03:30 PM 48.9°F9.4°C 45.8°F7.7°C 89% Calm Calm -- 30.58 in1035.6 mb - 0.00 in0.0 mm 0.00 in0.0 mm
03:40 PM 48.7°F9.3°C 45.3°F7.4°C 88% Calm Calm -- 30.58 in1035.6 mb - 0.00 in0.0 mm 0.00 in0.0 mm
03:50 PM 48.5°F9.2°C 45.1°F7.3°C 88% 1.2 mph WNW1.9 kmh WNW 4.6 mph7.4 kmh 30.58 in1035.6 mb - 0.00 in0.0 mm 0.00 in0.0 mm
04:00 PM 48.3°F9.1°C 44.6°F7.0°C 87% Calm Calm -- 30.58 in1035.6 mb - 0.00 in0.0 mm 0.00 in0.0 mm
04:10 PM 48.2°F9.0°C 44.5°F6.9°C 87% 1.2 mph SW1.9 kmh SW 3.5 mph5.6 kmh 30.58 in1035.6 mb - 0.00 in0.0 mm 0.00 in0.0 mm
04:20 PM 48.2°F9.0°C 44.8°F7.1°C 88% Calm Calm -- 30.58 in1035.6 mb - 0.00 in0.0 mm 0.00 in0.0 mm
04:30 PM 48.1°F8.9°C 44.7°F7.1°C 88% Calm Calm -- 30.59 in1035.9 mb - 0.00 in0.0 mm 0.00 in0.0 mm
04:40 PM 47.8°F8.8°C 44.5°F6.9°C 88% Calm Calm 1.2 mph1.9 kmh 30.59 in1035.9 mb - 0.00 in0.0 mm 0.00 in0.0 mm
04:50 PM 47.8°F8.8°C 44.4°F6.9°C 88% Calm Calm 1.2 mph1.9 kmh 30.59 in1035.9 mb - 0.00 in0.0 mm 0.00 in0.0 mm
05:00 PM 47.7°F8.7°C 44.3°F6.8°C 88% Calm Calm -- 30.59 in1035.9 mb - 0.00 in0.0 mm 0.00 in0.0 mm
05:10 PM 47.5°F8.6°C 44.1°F6.7°C 88% 1.2 mph SW1.9 kmh SW 3.5 mph5.6 kmh 30.60 in1036.2 mb - 0.00 in0.0 mm 0.00 in0.0 mm
05:20 PM 47.4°F8.6°C 44.0°F6.7°C 88% Calm Calm -- 30.60 in1036.2 mb - 0.00 in0.0 mm 0.00 in0.0 mm
05:30 PM 47.3°F8.5°C 43.9°F6.6°C 88% Calm Calm -- 30.60 in1036.2 mb - 0.00 in0.0 mm 0.00 in0.0 mm
05:40 PM 47.2°F8.4°C 44.1°F6.7°C 89% Calm Calm -- 30.60 in1036.2 mb - 0.00 in0.0 mm 0.00 in0.0 mm
05:50 PM 47.1°F8.4°C 43.7°F6.5°C 88% 1.2 mph WSW1.9 kmh WSW 2.3 mph3.7 kmh 30.60 in1036.2 mb - 0.00 in0.0 mm 0.00 in0.0 mm
06:00 PM 47.0°F8.3°C 43.6°F6.4°C 88% Calm Calm -- 30.60 in1036.2 mb - 0.00 in0.0 mm 0.00 in0.0 mm
06:10 PM 46.9°F8.3°C 43.2°F6.2°C 87% Calm Calm -- 30.61 in1036.6 mb - 0.00 in0.0 mm 0.00 in0.0 mm
06:20 PM 46.8°F8.2°C 43.4°F6.3°C 88% Calm Calm 5.8 mph9.3 kmh 30.61 in1036.6 mb - 0.00 in0.0 mm 0.00 in0.0 mm
06:30 PM 46.8°F8.2°C 43.4°F6.3°C 88% Calm Calm -- 30.61 in1036.6 mb - 0.00 in0.0 mm 0.00 in0.0 mm
06:40 PM 46.8°F8.2°C 43.4°F6.3°C 88% Calm Calm -- 30.61 in1036.6 mb - 0.00 in0.0 mm 0.00 in0.0 mm
06:50 PM 46.8°F8.2°C 43.4°F6.3°C 88% Calm Calm -- 30.62 in1036.9 mb - 0.00 in0.0 mm 0.00 in0.0 mm
07:00 PM 46.7°F8.2°C 43.3°F6.3°C 88% Calm Calm -- 30.61 in1036.6 mb - 0.00 in0.0 mm 0.00 in0.0 mm
07:10 PM 46.6°F8.1°C 43.0°F6.1°C 87% Calm Calm -- 30.62 in1036.9 mb - 0.00 in0.0 mm 0.00 in0.0 mm
07:20 PM 46.6°F8.1°C 42.9°F6.1°C 87% Calm Calm -- 30.62 in1036.9 mb - 0.00 in0.0 mm 0.00 in0.0 mm
07:30 PM 46.5°F8.1°C 42.8°F6.0°C 87% Calm Calm -- 30.62 in1036.9 mb - 0.00 in0.0 mm 0.00 in0.0 mm
07:50 PM 46.4°F8.0°C 42.5°F5.8°C 86% Calm Calm -- 30.62 in1036.9 mb - 0.00 in0.0 mm 0.00 in0.0 mm
08:00 PM 46.4°F8.0°C 42.4°F5.8°C 86% Calm Calm -- 30.62 in1036.9 mb - 0.00 in0.0 mm 0.00 in0.0 mm
08:10 PM 46.3°F7.9°C 42.0°F5.6°C 85% Calm Calm -- 30.62 in1036.9 mb - 0.00 in0.0 mm 0.00 in0.0 mm
08:20 PM 46.2°F7.9°C 42.0°F5.6°C 85% Calm Calm -- 30.62 in1036.9 mb - 0.00 in0.0 mm 0.00 in0.0 mm
08:30 PM 46.3°F7.9°C 42.0°F5.6°C 85% Calm Calm 2.3 mph3.7 kmh 30.62 in1036.9 mb - 0.00 in0.0 mm 0.00 in0.0 mm
08:40 PM 46.4°F8.0°C 42.1°F5.6°C 85% Calm Calm -- 30.62 in1036.9 mb - 0.00 in0.0 mm 0.00 in0.0 mm
08:50 PM 46.4°F8.0°C 42.1°F5.6°C 85% Calm Calm -- 30.62 in1036.9 mb - 0.00 in0.0 mm 0.00 in0.0 mm
09:00 PM 46.4°F8.0°C 42.4°F5.8°C 86% Calm Calm -- 30.62 in1036.9 mb - 0.00 in0.0 mm 0.00 in0.0 mm
09:10 PM 46.5°F8.1°C 42.2°F5.7°C 85% Calm Calm -- 30.62 in1036.9 mb - 0.00 in0.0 mm 0.00 in0.0 mm
09:20 PM 46.5°F8.1°C 42.2°F5.7°C 85% Calm Calm 2.3 mph3.7 kmh 30.63 in1037.3 mb - 0.00 in0.0 mm 0.00 in0.0 mm
09:30 PM 46.5°F8.1°C 42.2°F5.7°C 85% Calm Calm -- 30.63 in1037.3 mb - 0.00 in0.0 mm 0.00 in0.0 mm
09:40 PM 46.4°F8.0°C 42.1°F5.6°C 85% Calm Calm -- 30.63 in1037.3 mb - 0.00 in0.0 mm 0.00 in0.0 mm
09:50 PM 46.4°F8.0°C 42.1°F5.6°C 85% Calm Calm 1.2 mph1.9 kmh 30.63 in1037.3 mb - 0.00 in0.0 mm 0.00 in0.0 mm
10:00 PM 46.3°F7.9°C 42.0°F5.6°C 85% Calm Calm -- 30.63 in1037.3 mb - 0.00 in0.0 mm 0.00 in0.0 mm
10:10 PM 46.2°F7.9°C 41.9°F5.5°C 85% Calm Calm 1.2 mph1.9 kmh 30.63 in1037.3 mb - 0.00 in0.0 mm 0.00 in0.0 mm
10:20 PM 46.1°F7.8°C 41.5°F5.3°C 84% Calm Calm 1.2 mph1.9 kmh 30.63 in1037.3 mb - 0.00 in0.0 mm 0.00 in0.0 mm
10:30 PM 46.0°F7.8°C 41.5°F5.3°C 84% Calm Calm -- 30.63 in1037.3 mb - 0.00 in0.0 mm 0.00 in0.0 mm
10:40 PM 46.0°F7.8°C 41.4°F5.2°C 84% Calm Calm -- 30.63 in1037.3 mb - 0.00 in0.0 mm 0.00 in0.0 mm
10:50 PM 45.9°F7.7°C 41.3°F5.2°C 84% Calm Calm -- 30.64 in1037.6 mb - 0.00 in0.0 mm 0.00 in0.0 mm
11:00 PM 45.8°F7.7°C 41.2°F5.1°C 84% Calm Calm -- 30.64 in1037.6 mb - 0.00 in0.0 mm 0.00 in0.0 mm
11:10 PM 45.7°F7.6°C 41.2°F5.1°C 84% Calm Calm -- 30.64 in1037.6 mb - 0.00 in0.0 mm 0.00 in0.0 mm
11:20 PM 45.7°F7.6°C 41.1°F5.1°C 84% Calm Calm -- 30.64 in1037.6 mb - 0.00 in0.0 mm 0.00 in0.0 mm
11:30 PM 45.6°F7.6°C 41.0°F5.0°C 84% Calm Calm -- 30.64 in1037.6 mb - 0.00 in0.0 mm 0.00 in0.0 mm
11:40 PM 45.6°F7.6°C 41.0°F5.0°C 84% Calm Calm -- 30.64 in1037.6 mb - 0.00 in0.0 mm 0.00 in0.0 mm
11:50 PM 45.5°F7.5°C 40.9°F4.9°C 84% Calm Calm -- 30.64 in1037.6 mb - 0.00 in0.0 mm 0.00 in0.0 mm